Terminal Aerodrome Forecast
Issued by NWS Cleveland, OH

Home | Current Version | Previous Version | Graphics & Text | Print | Product List | Glossary Off
Versions: 1 2 3 4 5 6 7 8 9 10 11 12 13 14 15 16 17 18 19 20 21

000
FTUS41 KCLE 300723 AAA
TAFYNG
TAF AMD
KYNG 300723Z 3007/3106 16004KT 6SM BR SCT035 BKN120
      TEMPO 3007/3009 3SM -TSRA BR BKN035CB
     FM300900 14003KT 2SM BR SCT250
      TEMPO 3009/3013 3/4SM BR
     FM301500 20004KT P6SM SCT025 BKN080
     FM301800 22006KT P6SM VCTS BKN035CB
     FM302200 10005KT P6SM -TSRA BKN035CB
     FM310400 11005KT 4SM BR SCT250=

USA.gov is the U.S. government's official web portal to all federal, state and local government web resources and services.